Time;durP1;ratioP1;P1;durP2;ratioP2;P2;SDS_P1;SDS_P2;PMS_P1;PMS_P2;Temp;Humidity;BMP_temperature;BMP_pressure;BME280_temperature;BME280_humidity;BME280_pressure;Samples;Min_cycle;Max_cycle;Signal;HPM_P1;HPM_P2
2022/12/11 00:01:12;;;;;;;1.13;1.03;;;-8.60;99.90;;;;;;5115494;28;20231;-77
2022/12/11 00:03:38;;;;;;;0.50;0.50;;;-8.70;99.90;;;;;;5096911;28;20238;-77
2022/12/11 00:06:08;;;;;;;0.60;0.60;;;-8.70;99.90;;;;;;5115440;28;20194;-77
2022/12/11 00:08:34;;;;;;;0.60;0.60;;;-8.80;99.90;;;;;;5096929;28;20666;-77
2022/12/11 00:11:00;;;;;;;0.60;0.60;;;-8.80;99.90;;;;;;5097070;28;20286;-77
2022/12/11 00:13:26;;;;;;;0.60;0.60;;;-8.90;99.90;;;;;;5115248;28;20236;-77
2022/12/11 00:15:52;;;;;;;0.53;0.53;;;-8.80;99.90;;;;;;5097079;28;20192;-77
2022/12/11 00:18:17;;;;;;;0.60;0.60;;;-8.80;99.90;;;;;;5114879;28;20195;-77
2022/12/11 00:20:43;;;;;;;0.60;0.60;;;-8.90;99.90;;;;;;5115094;28;20195;-77
2022/12/11 00:23:09;;;;;;;0.50;0.50;;;-8.90;99.90;;;;;;5093227;28;20204;-77
2022/12/11 00:25:41;;;;;;;0.50;0.50;;;-9.00;99.90;;;;;;5102684;28;20225;-77
2022/12/11 00:28:07;;;;;;;0.93;0.93;;;-9.00;99.90;;;;;;5096904;28;20200;-77
2022/12/11 00:30:32;;;;;;;0.60;0.60;;;-9.00;99.90;;;;;;5095983;28;20203;-77
2022/12/11 00:32:58;;;;;;;0.53;0.53;;;-9.10;99.90;;;;;;5115357;28;20195;-77
2022/12/11 00:35:24;;;;;;;0.50;0.50;;;-9.10;99.90;;;;;;5096709;28;20286;-77
2022/12/11 00:37:49;;;;;;;0.53;0.53;;;-9.20;99.90;;;;;;5114765;28;20188;-77
2022/12/11 00:40:15;;;;;;;0.60;0.60;;;-9.20;99.90;;;;;;5096534;28;20356;-77
2022/12/11 00:42:41;;;;;;;0.60;0.60;;;-9.10;99.90;;;;;;5095942;28;20231;-78
2022/12/11 00:45:07;;;;;;;0.50;0.50;;;-9.10;99.90;;;;;;5096312;28;20188;-77
2022/12/11 00:47:33;;;;;;;0.50;0.50;;;-9.10;99.90;;;;;;5061097;28;20242;-77
2022/12/11 00:49:58;;;;;;;0.67;0.67;;;-9.00;99.90;;;;;;5055976;28;20193;-77
2022/12/11 00:52:24;;;;;;;0.60;0.60;;;-9.00;99.90;;;;;;5073421;28;20200;-77
2022/12/11 00:54:50;;;;;;;0.60;0.60;;;-9.00;99.90;;;;;;5055892;28;20678;-77
2022/12/11 00:57:15;;;;;;;0.50;0.50;;;-9.00;99.90;;;;;;5055871;28;20201;-77
2022/12/11 00:59:41;;;;;;;0.50;0.50;;;-8.90;99.90;;;;;;5055925;28;20201;-78
2022/12/11 01:02:07;;;;;;;0.60;0.60;;;-9.00;99.90;;;;;;5055953;28;20204;-77
2022/12/11 01:04:35;;;;;;;0.60;0.60;;;-9.00;99.90;;;;;;5055696;28;20188;-77
2022/12/11 01:07:01;;;;;;;0.60;0.60;;;-9.00;99.90;;;;;;5072494;28;20682;-77
2022/12/11 01:12:11;;;;;;;0.60;0.60;;;-9.00;99.90;;;;;;5066973;28;20327;-77
2022/12/11 01:14:36;;;;;;;0.60;0.60;;;-9.10;99.90;;;;;;5073440;28;20272;-78
2022/12/11 01:17:02;;;;;;;0.60;0.60;;;-9.10;99.90;;;;;;5055910;28;20711;-77
2022/12/11 01:19:28;;;;;;;0.50;0.50;;;-9.20;99.90;;;;;;5073463;28;20270;-77
2022/12/11 01:21:54;;;;;;;0.50;0.50;;;-9.30;99.90;;;;;;5063780;28;20568;-77
2022/12/11 01:24:19;;;;;;;0.60;0.60;;;-9.30;99.90;;;;;;5093511;28;20252;-77
2022/12/11 01:26:45;;;;;;;0.53;0.53;;;-9.30;99.90;;;;;;5076628;28;20192;-77
2022/12/11 01:29:11;;;;;;;0.93;0.93;;;-9.40;99.90;;;;;;5113729;28;20195;-76
2022/12/11 01:31:37;;;;;;;0.60;0.60;;;-9.40;99.90;;;;;;5113927;28;20654;-78
2022/12/11 01:34:03;;;;;;;0.50;0.50;;;-9.40;99.90;;;;;;5095802;28;20196;-76
2022/12/11 01:36:28;;;;;;;0.50;0.50;;;-9.40;99.90;;;;;;5113581;28;20260;-77
2022/12/11 01:38:55;;;;;;;0.60;0.60;;;-9.40;99.90;;;;;;5095410;28;20196;-77
2022/12/11 01:41:20;;;;;;;0.60;0.60;;;-9.40;99.90;;;;;;5094484;28;20231;-78
2022/12/11 01:44:01;;;;;;;0.53;0.53;;;-9.40;99.90;;;;;;5094556;28;20215;-77
2022/12/11 01:46:28;;;;;;;0.60;0.60;;;-9.40;99.90;;;;;;5093334;28;20188;-77
2022/12/11 01:48:54;;;;;;;0.60;0.60;;;-9.40;99.90;;;;;;5075263;28;20376;-77
2022/12/11 01:51:21;;;;;;;0.60;0.60;;;-9.40;99.90;;;;;;5074968;28;20188;-78
2022/12/11 01:53:57;;;;;;;0.60;0.60;;;-9.50;99.90;;;;;;5075163;28;20245;-77
2022/12/11 01:56:23;;;;;;;0.50;0.50;;;-9.50;99.90;;;;;;5076326;28;20603;-77
2022/12/11 01:58:55;;;;;;;0.50;0.50;;;-9.50;99.90;;;;;;5093097;28;20528;-77
2022/12/11 02:01:39;;;;;;;0.60;0.60;;;-9.50;99.90;;;;;;5093407;28;20204;-79
2022/12/11 02:04:07;;;;;;;0.50;0.50;;;-9.50;99.90;;;;;;5093245;28;20257;-79
2022/12/11 02:06:42;;;;;;;0.60;0.60;;;-9.50;99.90;;;;;;5092973;28;20590;-79
2022/12/11 02:09:16;;;;;;;0.53;0.53;;;-9.50;99.90;;;;;;5074860;28;20188;-79
2022/12/11 02:12:02;;;;;;;0.60;0.60;;;-9.40;99.90;;;;;;5074658;28;20199;-79
2022/12/11 02:14:48;;;;;;;0.83;0.83;;;-9.50;99.90;;;;;;5092866;28;20290;-79
2022/12/11 02:17:23;;;;;;;0.60;0.60;;;-9.50;99.90;;;;;;5092991;28;20209;-79
2022/12/11 02:19:55;;;;;;;0.70;0.70;;;-9.50;99.90;;;;;;5074895;28;20231;-79
2022/12/11 02:23:05;;;;;;;0.60;0.60;;;-9.60;99.90;;;;;;5092621;28;20570;-79
2022/12/11 02:25:39;;;;;;;0.60;0.60;;;-9.60;99.90;;;;;;5034061;28;20204;-79
2022/12/11 02:28:21;;;;;;;0.60;0.60;;;-9.60;99.90;;;;;;5085193;28;20204;-79
2022/12/11 02:30:53;;;;;;;0.60;0.60;;;-9.60;99.90;;;;;;5074672;28;20689;-79
2022/12/11 02:33:26;;;;;;;0.60;0.60;;;-9.60;99.90;;;;;;5074598;28;20228;-79
2022/12/11 02:35:53;;;;;;;0.60;0.60;;;-9.70;99.90;;;;;;5092989;28;20556;-79
2022/12/11 02:38:27;;;;;;;0.60;0.60;;;-9.60;99.90;;;;;;5096778;28;20783;-79
2022/12/11 02:40:55;;;;;;;0.60;0.60;;;-9.60;99.90;;;;;;5112931;28;20274;-79
2022/12/11 02:43:22;;;;;;;1.90;1.63;;;-9.50;99.90;;;;;;5112912;28;20203;-79
2022/12/11 02:45:50;;;;;;;0.50;0.50;;;-9.50;99.90;;;;;;5113075;28;20184;-79
2022/12/11 02:48:18;;;;;;;0.60;0.60;;;-9.40;99.90;;;;;;5112708;28;20275;-79
2022/12/11 02:50:47;;;;;;;0.60;0.60;;;-9.30;99.90;;;;;;5112956;28;20642;-79
2022/12/11 02:53:18;;;;;;;0.53;0.53;;;-9.20;99.90;;;;;;5114170;28;20654;-79
2022/12/11 02:55:46;;;;;;;0.60;0.60;;;-9.20;99.90;;;;;;5116769;28;20259;-78
2022/12/11 02:58:24;;;;;;;0.57;0.57;;;-9.20;99.90;;;;;;5098567;28;20294;-79
2022/12/11 03:00:50;;;;;;;0.60;0.60;;;-9.20;99.90;;;;;;5116311;28;20260;-78
2022/12/11 03:03:15;;;;;;;0.50;0.50;;;-9.20;99.90;;;;;;5098249;28;20242;-79
2022/12/11 03:05:42;;;;;;;0.70;0.70;;;-9.30;99.90;;;;;;5116744;28;20187;-79
2022/12/11 03:08:08;;;;;;;0.60;0.60;;;-9.40;99.90;;;;;;5116715;28;20191;-79
2022/12/11 03:10:34;;;;;;;0.50;0.50;;;-9.50;99.90;;;;;;5098265;28;20205;-79
2022/12/11 03:13:01;;;;;;;0.60;0.60;;;-9.50;99.90;;;;;;5116461;28;20195;-79
2022/12/11 03:15:56;;;;;;;0.60;0.60;;;-9.60;99.90;;;;;;5116184;28;20203;-79
2022/12/11 03:19:01;;;;;;;0.50;0.50;;;-9.70;99.90;;;;;;5097348;28;20219;-79
2022/12/11 03:22:02;;;;;;;0.50;0.50;;;-9.90;99.90;;;;;;5065033;28;20207;-79
2022/12/11 03:24:33;;;;;;;0.50;0.50;;;-9.90;99.90;;;;;;5093837;28;20700;-79
2022/12/11 03:27:06;;;;;;;0.70;0.70;;;-9.90;99.90;;;;;;5116260;28;20183;-79
2022/12/11 03:29:38;;;;;;;0.60;0.60;;;-9.90;99.90;;;;;;5114668;28;20188;-79
2022/12/11 03:32:12;;;;;;;0.60;0.60;;;-10.00;99.90;;;;;;5116243;28;20212;-79
2022/12/11 03:34:44;;;;;;;0.60;0.60;;;-9.90;99.90;;;;;;5081980;28;20187;-80
2022/12/11 03:37:12;;;;;;;0.50;0.50;;;-9.90;99.90;;;;;;5116153;28;20670;-79
2022/12/11 03:39:43;;;;;;;0.50;0.50;;;-9.90;99.90;;;;;;5115912;28;20704;-79
2022/12/11 03:42:12;;;;;;;0.50;0.50;;;-9.90;99.90;;;;;;5097170;28;20720;-78
2022/12/11 03:44:39;;;;;;;0.60;0.60;;;-9.90;99.90;;;;;;5097339;28;20192;-80
2022/12/11 03:47:07;;;;;;;0.50;0.50;;;-9.90;99.90;;;;;;5097550;28;20940;-79
2022/12/11 03:49:39;;;;;;;0.60;0.60;;;-9.90;99.90;;;;;;5115755;28;20192;-79
2022/12/11 03:52:06;;;;;;;0.50;0.50;;;-9.80;99.90;;;;;;5097613;28;20203;-79
2022/12/11 03:54:33;;;;;;;0.50;0.50;;;-9.70;99.90;;;;;;5115701;28;20191;-78
2022/12/11 03:57:01;;;;;;;0.60;0.60;;;-9.70;99.90;;;;;;5097394;28;20196;-79
2022/12/11 03:59:27;;;;;;;0.60;0.60;;;-9.60;99.90;;;;;;5097171;28;20693;-79
2022/12/11 04:01:53;;;;;;;0.50;0.50;;;-9.50;99.90;;;;;;5106079;28;20195;-79
2022/12/11 04:04:19;;;;;;;0.53;0.53;;;-9.40;99.90;;;;;;5113072;28;20195;-79
2022/12/11 04:06:45;;;;;;;0.50;0.50;;;-9.40;99.90;;;;;;5115120;28;20183;-79
2022/12/11 04:09:10;;;;;;;0.53;0.53;;;-9.30;99.90;;;;;;5115541;28;20241;-79
2022/12/11 04:11:37;;;;;;;0.50;0.50;;;-9.20;99.90;;;;;;5114915;28;20688;-79
2022/12/11 04:16:52;;;;;;;0.50;0.50;;;-9.20;99.90;;;;;;5115287;28;20286;-82
2022/12/11 04:24:48;;;;;;;0.50;0.50;;;-9.10;99.90;;;;;;5115044;28;20832;-82
2022/12/11 04:27:47;;;;;;;0.50;0.50;;;-9.00;99.90;;;;;;5113940;28;20286;-82
2022/12/11 04:29:59;;;;;;;0.50;0.50;;;-8.90;99.90;;;;;;5115041;28;20191;-82
2022/12/11 04:32:25;;;;;;;0.50;0.50;;;-9.00;99.90;;;;;;5099008;28;20698;-83
2022/12/11 04:34:51;;;;;;;0.50;0.50;;;-8.90;99.90;;;;;;5115448;28;20202;-82
2022/12/11 04:37:16;;;;;;;0.60;0.60;;;-8.90;99.90;;;;;;5096598;28;20195;-83
2022/12/11 04:39:42;;;;;;;0.50;0.50;;;-8.90;99.90;;;;;;5114714;28;20188;-82
2022/12/11 04:42:08;;;;;;;0.60;0.60;;;-8.90;99.90;;;;;;5114595;28;20261;-82
2022/12/11 04:44:33;;;;;;;0.50;0.50;;;-8.90;99.90;;;;;;5096555;28;20303;-82
2022/12/11 04:46:59;;;;;;;0.50;0.50;;;-8.90;99.90;;;;;;5114726;28;20187;-82
2022/12/11 04:49:25;;;;;;;0.50;0.50;;;-8.90;99.90;;;;;;5114729;28;20656;-81
2022/12/11 04:51:50;;;;;;;0.50;0.50;;;-8.80;99.90;;;;;;5114742;28;20196;-81
2022/12/11 04:54:16;;;;;;;0.50;0.50;;;-8.90;99.90;;;;;;5096222;28;20195;-82
2022/12/11 04:56:42;;;;;;;0.50;0.50;;;-8.90;99.90;;;;;;5114595;28;20196;-82
2022/12/11 04:59:07;;;;;;;0.50;0.50;;;-8.80;99.90;;;;;;5096339;28;20658;-82
2022/12/11 05:01:33;;;;;;;0.50;0.50;;;-8.80;99.90;;;;;;5096480;28;20240;-82
2022/12/11 05:03:59;;;;;;;0.50;0.50;;;-8.80;99.90;;;;;;5096204;28;20211;-82
2022/12/11 05:06:25;;;;;;;0.50;0.50;;;-8.90;99.90;;;;;;5114165;28;20199;-82
2022/12/11 05:08:50;;;;;;;0.50;0.50;;;-8.80;99.90;;;;;;5114352;28;20271;-81
2022/12/11 05:11:16;;;;;;;0.50;0.50;;;-8.80;99.90;;;;;;5095989;28;20198;-83
2022/12/11 05:13:43;;;;;;;0.50;0.50;;;-8.90;99.90;;;;;;5095673;28;20199;-82
2022/12/11 05:16:11;;;;;;;0.50;0.50;;;-8.90;99.90;;;;;;5114055;28;20685;-83
2022/12/11 05:18:38;;;;;;;0.40;0.40;;;-8.80;99.90;;;;;;5095926;28;20642;-82
2022/12/11 05:21:06;;;;;;;0.87;0.80;;;-8.80;99.90;;;;;;5114219;28;20211;-82
2022/12/11 05:23:32;;;;;;;0.50;0.50;;;-8.80;99.90;;;;;;5105285;28;20214;-83
2022/12/11 05:26:01;;;;;;;0.50;0.50;;;-8.80;99.90;;;;;;5093758;28;20244;-82
2022/12/11 05:28:29;;;;;;;0.50;0.50;;;-8.80;99.90;;;;;;5109252;28;20195;-82
2022/12/11 05:30:57;;;;;;;0.50;0.50;;;-8.80;99.90;;;;;;5113750;28;20686;-83
2022/12/11 05:33:23;;;;;;;0.80;0.80;;;-8.70;99.90;;;;;;5113683;28;20195;-83
2022/12/11 05:35:49;;;;;;;0.50;0.50;;;-8.80;99.90;;;;;;5095839;28;20199;-82
2022/12/11 05:38:15;;;;;;;0.50;0.50;;;-8.80;99.90;;;;;;5114095;28;20191;-84
2022/12/11 05:40:41;;;;;;;0.50;0.50;;;-8.90;99.90;;;;;;5095526;28;20207;-82
2022/12/11 05:43:07;;;;;;;0.50;0.50;;;-8.90;99.90;;;;;;5113589;28;20235;-83
2022/12/11 05:45:33;;;;;;;0.50;0.50;;;-8.90;99.90;;;;;;5113528;28;20205;-83
2022/12/11 05:47:59;;;;;;;0.50;0.50;;;-9.00;99.90;;;;;;5113800;28;20539;-83
2022/12/11 05:50:25;;;;;;;0.50;0.50;;;-9.00;99.90;;;;;;5095365;28;20286;-83
2022/12/11 05:52:51;;;;;;;0.50;0.50;;;-9.10;99.90;;;;;;5095394;28;20206;-83
2022/12/11 05:55:16;;;;;;;0.50;0.50;;;-9.10;99.90;;;;;;5113678;28;20286;-83
2022/12/11 05:57:43;;;;;;;0.53;0.53;;;-9.10;99.90;;;;;;5113345;28;20206;-83
2022/12/11 06:00:11;;;;;;;0.60;0.60;;;-9.20;99.90;;;;;;5113708;28;20219;-84
2022/12/11 06:02:37;;;;;;;0.50;0.50;;;-9.10;99.90;;;;;;5113187;28;20269;-81
2022/12/11 06:05:03;;;;;;;0.60;0.60;;;-9.10;99.90;;;;;;5095020;28;20658;-83
2022/12/11 06:07:28;;;;;;;0.50;0.50;;;-9.10;99.90;;;;;;5113349;28;20192;-83
2022/12/11 06:09:54;;;;;;;0.50;0.50;;;-9.10;99.90;;;;;;5095735;28;20560;-82
2022/12/11 06:12:20;;;;;;;0.50;0.50;;;-9.10;99.90;;;;;;5098592;28;20203;-82
2022/12/11 06:14:45;;;;;;;0.60;0.60;;;-9.00;99.90;;;;;;5095312;28;20211;-83
2022/12/11 06:17:11;;;;;;;0.50;0.50;;;-9.00;99.90;;;;;;5095119;28;20206;-83
2022/12/11 06:19:37;;;;;;;0.50;0.50;;;-9.00;99.90;;;;;;5113257;28;20203;-82
2022/12/11 06:22:03;;;;;;;0.50;0.50;;;-9.10;99.90;;;;;;5113189;28;20279;-83
2022/12/11 06:24:29;;;;;;;0.50;0.50;;;-9.10;99.90;;;;;;5112875;28;20678;-83
2022/12/11 06:26:55;;;;;;;0.57;0.57;;;-9.20;99.90;;;;;;5113537;28;20224;-84
2022/12/11 06:29:20;;;;;;;0.60;0.60;;;-9.30;99.90;;;;;;5116184;28;20654;-83
2022/12/11 06:31:46;;;;;;;0.50;0.50;;;-9.40;99.90;;;;;;5117286;28;20192;-84
2022/12/11 06:34:13;;;;;;;0.50;0.50;;;-9.50;99.90;;;;;;5117336;28;20206;-83
2022/12/11 06:36:39;;;;;;;0.60;0.60;;;-9.60;99.90;;;;;;5098764;28;20663;-83
2022/12/11 06:39:05;;;;;;;0.60;0.60;;;-9.70;99.90;;;;;;5098709;28;20199;-83
2022/12/11 06:41:30;;;;;;;0.60;0.60;;;-9.70;99.90;;;;;;5117053;28;20709;-82
2022/12/11 06:43:57;;;;;;;0.60;0.60;;;-9.70;99.90;;;;;;5098709;28;20254;-83
2022/12/11 06:46:22;;;;;;;0.50;0.50;;;-9.80;99.90;;;;;;5116931;28;20213;-83
2022/12/11 06:48:49;;;;;;;0.60;0.60;;;-9.90;99.90;;;;;;5117137;28;20560;-84
2022/12/11 06:51:18;;;;;;;0.60;0.60;;;-9.90;99.90;;;;;;5098761;28;20195;-83
2022/12/11 06:53:44;;;;;;;0.60;0.60;;;-9.90;99.90;;;;;;5116891;28;20191;-84
2022/12/11 06:56:13;;;;;;;0.80;0.80;;;-9.90;99.90;;;;;;5099118;28;20281;-84
2022/12/11 06:58:40;;;;;;;0.60;0.60;;;-10.00;99.90;;;;;;5098084;28;20203;-83
2022/12/11 07:01:16;;;;;;;0.50;0.50;;;-9.90;99.90;;;;;;5117247;28;20555;-83
2022/12/11 07:03:43;;;;;;;0.50;0.50;;;-9.80;99.90;;;;;;5098462;28;20211;-83
2022/12/11 07:06:09;;;;;;;0.60;0.60;;;-9.80;99.90;;;;;;5098427;28;20231;-83
2022/12/11 07:08:34;;;;;;;0.50;0.50;;;-9.70;99.90;;;;;;5098282;28;20230;-81
2022/12/11 07:11:05;;;;;;;0.50;0.50;;;-9.70;99.90;;;;;;5116642;28;20188;-82
2022/12/11 07:13:32;;;;;;;0.53;0.53;;;-9.70;99.90;;;;;;5098302;28;20256;-82
2022/12/11 07:15:59;;;;;;;0.50;0.50;;;-9.70;99.90;;;;;;5116301;28;20630;-82
2022/12/11 07:18:25;;;;;;;0.80;0.80;;;-9.60;99.90;;;;;;5114730;28;20203;-82
2022/12/11 07:20:51;;;;;;;0.70;0.70;;;-9.60;99.90;;;;;;5116370;28;20227;-81
2022/12/11 07:23:17;;;;;;;0.50;0.50;;;-9.60;99.90;;;;;;5093230;28;20694;-82
2022/12/11 07:25:42;;;;;;;0.50;0.50;;;-9.60;99.90;;;;;;5078091;28;20559;-81
2022/12/11 07:28:08;;;;;;;0.77;0.70;;;-9.60;99.90;;;;;;5096008;28;20188;-82
2022/12/11 07:30:34;;;;;;;0.60;0.60;;;-9.50;99.90;;;;;;5094411;28;20192;-81
2022/12/11 07:33:00;;;;;;;0.50;0.50;;;-9.50;99.90;;;;;;5096068;28;20618;-81
2022/12/11 07:35:25;;;;;;;0.50;0.50;;;-9.50;99.90;;;;;;5095826;28;20207;-80
2022/12/11 07:37:51;;;;;;;0.50;0.50;;;-9.40;99.90;;;;;;5095917;28;20203;-81
2022/12/11 07:40:17;;;;;;;0.50;0.50;;;-9.40;99.90;;;;;;5097932;28;20203;-79
2022/12/11 07:42:43;;;;;;;0.60;0.60;;;-9.30;99.90;;;;;;5097032;28;20238;-79
2022/12/11 07:45:09;;;;;;;0.50;0.50;;;-9.30;99.90;;;;;;5115915;28;20226;-80
2022/12/11 07:47:35;;;;;;;0.50;0.50;;;-9.30;99.90;;;;;;5115612;28;20191;-80
2022/12/11 07:50:01;;;;;;;0.60;0.60;;;-9.20;99.90;;;;;;5115614;28;20188;-79
2022/12/11 07:52:26;;;;;;;0.50;0.50;;;-9.20;99.90;;;;;;5097075;28;20670;-80
2022/12/11 07:54:52;;;;;;;0.73;0.73;;;-9.10;99.90;;;;;;5097250;28;20225;-79
2022/12/11 07:57:18;;;;;;;0.50;0.50;;;-9.10;99.90;;;;;;5115551;28;20244;-80
2022/12/11 07:59:43;;;;;;;0.50;0.50;;;-9.00;99.90;;;;;;5115530;28;20199;-83
2022/12/11 08:02:10;;;;;;;0.57;0.57;;;-9.00;99.90;;;;;;5097327;28;20663;-80
2022/12/11 08:04:36;;;;;;;0.50;0.50;;;-8.90;99.90;;;;;;5097072;28;20195;-80
2022/12/11 08:07:02;;;;;;;0.50;0.50;;;-8.90;99.90;;;;;;5097350;28;20195;-80
2022/12/11 08:09:28;;;;;;;0.60;0.60;;;-8.80;99.90;;;;;;5115399;28;20695;-80
2022/12/11 08:11:54;;;;;;;0.40;0.40;;;-8.80;99.90;;;;;;5097084;28;20223;-79
2022/12/11 08:14:19;;;;;;;0.70;0.70;;;-8.70;99.90;;;;;;5115139;28;20560;-80
2022/12/11 08:16:46;;;;;;;0.50;0.50;;;-8.70;99.90;;;;;;5114565;28;20187;-80
2022/12/11 08:19:12;;;;;;;0.50;0.50;;;-8.70;99.90;;;;;;5096755;28;20199;-80
2022/12/11 08:21:38;;;;;;;1.00;0.90;;;-8.60;99.90;;;;;;5114744;28;20256;-80
2022/12/11 08:24:04;;;;;;;0.50;0.50;;;-8.60;99.90;;;;;;5102909;28;20234;-80
2022/12/11 08:26:30;;;;;;;0.60;0.60;;;-8.50;99.90;;;;;;5094374;28;20576;-80
2022/12/11 08:28:56;;;;;;;1.47;1.17;;;-8.50;99.90;;;;;;5094713;28;20732;-80
2022/12/11 08:31:23;;;;;;;0.60;0.60;;;-8.50;99.90;;;;;;5094452;28;20219;-81
2022/12/11 08:33:50;;;;;;;0.53;0.53;;;-8.50;99.90;;;;;;5094904;28;20191;-80
2022/12/11 08:36:18;;;;;;;0.70;0.70;;;-8.50;99.90;;;;;;5094475;28;20224;-81
2022/12/11 08:38:45;;;;;;;0.80;0.80;;;-8.50;99.90;;;;;;5076076;28;20204;-83
2022/12/11 08:41:16;;;;;;;0.60;0.60;;;-8.40;99.90;;;;;;5094496;28;20184;-80
2022/12/11 08:43:43;;;;;;;0.50;0.50;;;-8.40;99.90;;;;;;5093954;28;20289;-80
2022/12/11 08:46:09;;;;;;;0.67;0.67;;;-8.40;99.90;;;;;;5094386;28;20199;-79
2022/12/11 08:48:37;;;;;;;0.50;0.50;;;-8.30;99.90;;;;;;5075873;28;20228;-80
2022/12/11 08:51:04;;;;;;;0.47;0.47;;;-8.30;99.90;;;;;;5076780;28;20249;-80
2022/12/11 08:53:31;;;;;;;0.60;0.60;;;-8.20;99.90;;;;;;5114549;28;20274;-81
2022/12/11 08:56:01;;;;;;;0.50;0.50;;;-8.20;99.90;;;;;;5096496;28;20198;-79
2022/12/11 08:58:28;;;;;;;0.50;0.50;;;-8.20;99.90;;;;;;5114391;28;20184;-80
2022/12/11 09:00:54;;;;;;;1.17;1.07;;;-8.20;99.90;;;;;;5096363;28;20260;-81
2022/12/11 09:03:20;;;;;;;0.50;0.50;;;-8.20;99.90;;;;;;5113975;28;20211;-80
2022/12/11 09:05:46;;;;;;;0.60;0.60;;;-8.20;99.90;;;;;;5114600;28;20236;-81
2022/12/11 09:08:11;;;;;;;0.50;0.50;;;-8.10;99.90;;;;;;5114528;28;20654;-81
2022/12/11 09:10:37;;;;;;;2.17;1.73;;;-8.10;99.90;;;;;;5113935;28;20188;-81
2022/12/11 09:13:03;;;;;;;0.60;0.60;;;-8.10;99.90;;;;;;5097634;28;20598;-80
2022/12/11 09:15:29;;;;;;;0.70;0.70;;;-8.10;99.90;;;;;;5096165;28;20207;-81
2022/12/11 09:17:55;;;;;;;0.50;0.50;;;-8.10;99.90;;;;;;5114427;28;20674;-80
2022/12/11 09:20:20;;;;;;;0.53;0.53;;;-8.00;99.90;;;;;;5095754;28;20196;-80
2022/12/11 09:22:46;;;;;;;0.57;0.57;;;-8.00;99.90;;;;;;5113142;28;20199;-81
2022/12/11 09:25:13;;;;;;;0.70;0.70;;;-8.10;99.90;;;;;;5075484;28;20188;-81
2022/12/11 09:27:39;;;;;;;0.60;0.60;;;-8.10;99.90;;;;;;5075175;28;20860;-80
2022/12/11 09:30:06;;;;;;;0.73;0.73;;;-8.10;99.90;;;;;;5076003;28;20192;-81
2022/12/11 09:32:31;;;;;;;0.50;0.50;;;-8.10;99.90;;;;;;5093707;28;20203;-81
2022/12/11 09:34:58;;;;;;;0.60;0.60;;;-8.10;99.90;;;;;;5093334;28;20197;-82
2022/12/11 09:37:23;;;;;;;0.70;0.70;;;-8.10;99.90;;;;;;5075141;28;20206;-80
2022/12/11 09:39:49;;;;;;;1.43;1.27;;;-8.10;99.90;;;;;;5093773;28;20196;-80
2022/12/11 09:42:29;;;;;;;0.50;0.50;;;-8.10;99.90;;;;;;5075306;28;20236;-81
2022/12/11 09:45:00;;;;;;;1.07;1.07;;;-8.10;99.90;;;;;;5093488;28;20202;-81
2022/12/11 09:47:41;;;;;;;0.50;0.50;;;-8.10;99.90;;;;;;5095756;28;20188;-81
2022/12/11 09:50:10;;;;;;;3.90;1.47;;;-8.10;99.90;;;;;;5095644;28;20199;-82
2022/12/11 09:52:57;;;;;;;1.07;1.03;;;-8.10;99.90;;;;;;5095366;28;20201;-81
2022/12/11 09:55:24;;;;;;;0.47;0.47;;;-8.00;99.90;;;;;;5095300;28;20203;-81
2022/12/11 09:58:17;;;;;;;0.50;0.50;;;-8.00;99.90;;;;;;5113659;28;20199;-81
2022/12/11 10:00:52;;;;;;;0.50;0.50;;;-8.00;99.90;;;;;;5095148;28;20199;-81
2022/12/11 10:03:26;;;;;;;0.50;0.50;;;-7.80;99.90;;;;;;5112801;28;20218;-83
2022/12/11 10:06:10;;;;;;;0.40;0.40;;;-7.80;99.90;;;;;;5095413;28;20561;-82
2022/12/11 10:09:00;;;;;;;0.50;0.50;;;-7.70;99.90;;;;;;5099509;28;20262;-82
2022/12/11 10:11:57;;;;;;;0.50;0.50;;;-7.60;99.90;;;;;;5113254;28;20202;-82
2022/12/11 10:14:37;;;;;;;0.53;0.53;;;-7.50;99.90;;;;;;5113475;28;20192;-81
2022/12/11 10:17:24;;;;;;;0.40;0.40;;;-7.50;99.90;;;;;;5095533;28;20617;-83
2022/12/11 10:19:50;;;;;;;0.73;0.73;;;-7.50;99.90;;;;;;5095133;28;20203;-83
2022/12/11 10:22:31;;;;;;;1.90;1.53;;;-7.50;99.90;;;;;;5113329;28;20199;-82
2022/12/11 10:25:04;;;;;;;0.50;0.50;;;-7.50;99.90;;;;;;5094055;28;20192;-81
2022/12/11 10:27:38;;;;;;;0.50;0.50;;;-7.50;99.90;;;;;;5092499;28;20281;-81
2022/12/11 10:30:14;;;;;;;0.60;0.60;;;-7.50;99.90;;;;;;5074913;28;20199;-82
2022/12/11 10:32:40;;;;;;;0.80;0.80;;;-7.50;99.90;;;;;;5092930;28;20792;-82
2022/12/11 10:35:09;;;;;;;0.50;0.50;;;-7.40;99.90;;;;;;5092724;28;20218;-82
2022/12/11 10:37:34;;;;;;;0.60;0.60;;;-7.40;99.90;;;;;;5092304;28;20241;-82
2022/12/11 10:40:00;;;;;;;0.50;0.50;;;-7.40;99.90;;;;;;5074822;28;20226;-82
2022/12/11 10:42:26;;;;;;;0.50;0.50;;;-7.40;99.90;;;;;;5092391;28;20254;-81
2022/12/11 10:45:00;;;;;;;0.50;0.50;;;-7.40;99.90;;;;;;5105075;28;20192;-81
2022/12/11 10:47:26;;;;;;;0.40;0.40;;;-7.40;99.90;;;;;;5113028;28;20553;-81
2022/12/11 10:49:57;;;;;;;0.50;0.50;;;-7.40;99.90;;;;;;5094959;28;20191;-82
2022/12/11 10:52:37;;;;;;;0.40;0.40;;;-7.30;99.90;;;;;;5094967;28;20191;-81
2022/12/11 10:55:02;;;;;;;0.40;0.40;;;-7.30;99.90;;;;;;5113296;28;20589;-82
2022/12/11 10:57:32;;;;;;;0.50;0.50;;;-7.30;99.90;;;;;;5094588;28;20290;-82
2022/12/11 11:00:04;;;;;;;0.50;0.50;;;-7.30;99.90;;;;;;5113156;28;20227;-82
2022/12/11 11:02:34;;;;;;;0.50;0.50;;;-7.30;99.90;;;;;;5094726;28;20582;-83
2022/12/11 11:05:11;;;;;;;0.50;0.50;;;-7.30;99.90;;;;;;5094481;28;20552;-82
2022/12/11 11:07:37;;;;;;;0.50;0.50;;;-7.20;99.90;;;;;;5112702;28;20299;-83
2022/12/11 11:10:15;;;;;;;0.50;0.50;;;-7.20;99.90;;;;;;5094732;28;20282;-83
2022/12/11 11:12:49;;;;;;;0.50;0.50;;;-7.10;99.90;;;;;;5112624;28;20663;-83
2022/12/11 11:15:21;;;;;;;0.53;0.53;;;-7.20;99.90;;;;;;5097175;28;20196;-83
2022/12/11 11:17:50;;;;;;;1.43;1.03;;;-7.20;99.90;;;;;;5098340;28;20200;-83
2022/12/11 11:20:19;;;;;;;0.90;0.90;;;-7.10;99.90;;;;;;5098261;28;20191;-83
2022/12/11 11:23:12;;;;;;;0.50;0.50;;;-7.00;99.90;;;;;;5115642;28;20199;-85
2022/12/11 11:25:39;;;;;;;7.93;2.67;;;-7.00;99.90;;;;;;5092508;28;20588;-82
2022/12/11 11:28:08;;;;;;;0.57;0.57;;;-7.00;99.90;;;;;;5096157;28;20533;-83
2022/12/11 11:30:40;;;;;;;0.50;0.50;;;-6.90;99.90;;;;;;5077888;28;20332;-83
2022/12/11 11:33:19;;;;;;;0.70;0.70;;;-7.00;99.90;;;;;;5095872;28;20200;-82
2022/12/11 11:36:01;;;;;;;0.60;0.60;;;-7.00;99.90;;;;;;5095740;28;20218;-82
2022/12/11 11:38:38;;;;;;;0.40;0.40;;;-7.00;99.90;;;;;;5095447;28;20249;-82
2022/12/11 11:41:20;;;;;;;0.50;0.50;;;-7.00;99.90;;;;;;5089478;28;20249;-82
2022/12/11 11:43:53;;;;;;;0.70;0.70;;;-7.00;99.90;;;;;;5097711;28;20310;-82
2022/12/11 11:46:39;;;;;;;0.80;0.80;;;-7.00;99.90;;;;;;5116317;28;20179;-82
2022/12/11 11:49:47;;;;;;;0.50;0.50;;;-7.00;99.90;;;;;;5116170;28;20195;-82
2022/12/11 11:52:25;;;;;;;0.50;0.50;;;-7.00;99.90;;;;;;5084433;28;20196;-82
2022/12/11 11:55:17;;;;;;;0.50;0.50;;;-7.00;99.90;;;;;;5098357;28;20195;-80
2022/12/11 11:57:55;;;;;;;0.70;0.70;;;-7.00;99.90;;;;;;5102494;28;20204;-82
2022/12/11 12:00:24;;;;;;;0.50;0.50;;;-7.00;99.90;;;;;;5097107;28;20199;-81
2022/12/11 12:02:56;;;;;;;1.77;1.23;;;-6.90;99.90;;;;;;5087704;28;20348;-82
2022/12/11 12:05:46;;;;;;;0.60;0.60;;;-6.90;99.90;;;;;;5097369;28;20191;-82
2022/12/11 12:08:28;;;;;;;0.60;0.60;;;-6.80;99.90;;;;;;5115916;28;20225;-82
2022/12/11 12:10:57;;;;;;;0.50;0.50;;;-6.80;99.90;;;;;;5097404;28;20223;-82
2022/12/11 12:13:35;;;;;;;0.53;0.53;;;-6.80;99.90;;;;;;5097118;28;20662;-82
2022/12/11 12:16:11;;;;;;;0.60;0.60;;;-6.90;99.90;;;;;;5115565;28;20198;-82
2022/12/11 12:19:12;;;;;;;0.50;0.50;;;-6.90;99.90;;;;;;5115006;28;20191;-81
2022/12/11 12:21:46;;;;;;;0.50;0.50;;;-6.90;99.90;;;;;;5075089;28;20224;-81
2022/12/11 12:24:33;;;;;;;0.50;0.50;;;-6.90;99.90;;;;;;5093513;28;20616;-82
2022/12/11 12:27:22;;;;;;;0.50;0.50;;;-6.90;99.90;;;;;;5093909;28;20242;-82
2022/12/11 12:30:02;;;;;;;0.40;0.40;;;-6.90;99.90;;;;;;5079235;28;20219;-82
2022/12/11 12:32:38;;;;;;;0.50;0.50;;;-6.90;99.90;;;;;;5076320;28;20203;-82
2022/12/11 12:35:04;;;;;;;0.70;0.70;;;-6.90;99.90;;;;;;5076512;28;20200;-82
2022/12/11 12:37:57;;;;;;;0.50;0.50;;;-6.90;99.90;;;;;;5107989;28;20192;-82
2022/12/11 12:40:31;;;;;;;1.43;1.33;;;-6.90;99.90;;;;;;5096450;28;20195;-81
2022/12/11 12:43:41;;;;;;;0.60;0.60;;;-7.00;99.90;;;;;;5096363;28;20769;-82
2022/12/11 12:46:34;;;;;;;0.50;0.50;;;-7.00;99.90;;;;;;5096278;28;20198;-82
2022/12/11 12:49:06;;;;;;;0.80;0.80;;;-7.10;99.90;;;;;;5114534;28;20215;-82
2022/12/11 12:51:32;;;;;;;0.53;0.53;;;-7.10;99.90;;;;;;5114549;28;20191;-82
2022/12/11 12:54:02;;;;;;;0.40;0.40;;;-7.10;99.90;;;;;;5114434;28;20712;-80
2022/12/11 12:56:30;;;;;;;0.67;0.67;;;-7.10;99.90;;;;;;5114230;28;20204;-81
2022/12/11 12:58:59;;;;;;;0.50;0.50;;;-7.10;99.90;;;;;;5095986;28;20212;-80
2022/12/11 13:01:27;;;;;;;0.50;0.50;;;-7.10;99.90;;;;;;5114645;28;20248;-80
2022/12/11 13:04:04;;;;;;;0.60;0.60;;;-7.10;99.90;;;;;;5114586;28;20215;-80
2022/12/11 13:06:44;;;;;;;0.50;0.50;;;-7.30;99.90;;;;;;5095780;28;20214;-81
2022/12/11 13:09:18;;;;;;;0.40;0.40;;;-7.30;99.90;;;;;;5114395;28;20195;-82
2022/12/11 13:11:48;;;;;;;0.50;0.50;;;-7.30;99.90;;;;;;5114585;28;20197;-82
2022/12/11 13:14:14;;;;;;;0.50;0.50;;;-7.30;99.90;;;;;;5114491;28;20188;-82